Rogers, New Mexico
Current Conditions -  °F | °C
As of 11:08 AM on Sunday 23 Nov 2014 (Local Time) from KCVS Reporting Station
Scattered Clouds Scattered Clouds  
Wind Chill: 57°   Ceiling: Unl
Heat Index: 57°   Visibility: 10mi
Dew Point: 23°   Wind: 17mph
Humidity: 27%   Direction: 40°NE
Pressure: 29.67"   Gusts: 28mph
Location:  33.98°N, 103.23°W
Report Text: KCVS 231808Z AUTO 04015G24KT 10SM FEW080 SCT110 14/M05 A2967 RMK AO2 WSHFT 07
Loading
Personal Weather Stations






























Interactive Weather Map New forecast layout! Learn more

10-Day Weather Forecast

Advertisements
Track Severe Weather on mobile